createdAt,value
2019-03-27T00:01:18.850Z,30.75
2019-03-27T00:03:48.241Z,39.25
2019-03-27T00:06:17.558Z,36.00
2019-03-27T00:08:49.522Z,30.35
2019-03-27T00:11:18.933Z,35.10
2019-03-27T00:13:48.348Z,40.40
2019-03-27T00:16:17.757Z,33.85
2019-03-27T00:18:48.260Z,33.80
2019-03-27T00:21:17.749Z,34.18
2019-03-27T00:23:47.805Z,34.80
2019-03-27T00:26:17.798Z,36.20
2019-03-27T00:28:47.933Z,38.75
2019-03-27T00:31:17.933Z,37.40
2019-03-27T00:33:47.936Z,29.65
2019-03-27T00:36:18.232Z,36.98
2019-03-27T00:38:48.159Z,35.68
2019-03-27T00:41:18.075Z,30.72
2019-03-27T00:43:48.061Z,32.53
2019-03-27T00:46:18.173Z,37.45
2019-03-27T00:48:48.181Z,30.30
2019-03-27T00:51:18.207Z,44.30
2019-03-27T00:53:48.304Z,31.82
2019-03-27T00:56:18.431Z,36.53
2019-03-27T00:58:48.193Z,40.70
2019-03-27T01:01:18.334Z,30.92
2019-03-27T01:03:48.250Z,37.28
2019-03-27T01:06:18.274Z,40.58
2019-03-27T01:08:48.377Z,36.53
2019-03-27T01:11:18.384Z,36.23
2019-03-27T01:13:48.421Z,38.70
2019-03-27T01:16:18.401Z,40.30
2019-03-27T01:18:48.850Z,41.83
2019-03-27T01:21:18.415Z,36.83
2019-03-27T01:23:48.443Z,38.70
2019-03-27T01:26:18.526Z,42.18
2019-03-27T01:28:48.517Z,60.03
2019-03-27T01:31:18.672Z,42.83
2019-03-27T01:33:48.577Z,44.23
2019-03-27T01:36:18.680Z,41.75
2019-03-27T01:38:48.665Z,40.95
2019-03-27T01:41:18.675Z,48.05
2019-03-27T01:43:48.703Z,36.38
2019-03-27T01:46:18.743Z,50.00
2019-03-27T01:48:55.782Z,42.40
2019-03-27T01:51:25.073Z,48.68
2019-03-27T01:53:54.433Z,43.40
2019-03-27T01:56:23.788Z,50.08
2019-03-27T01:58:53.111Z,48.40
2019-03-27T02:01:22.510Z,50.43
2019-03-27T02:03:51.882Z,45.38
2019-03-27T02:06:21.322Z,60.80
2019-03-27T02:08:50.629Z,48.38
2019-03-27T02:11:20.787Z,50.65
2019-03-27T02:13:50.212Z,42.13
2019-03-27T02:16:19.541Z,54.50
2019-03-27T02:18:49.090Z,37.83
2019-03-27T02:21:19.382Z,53.63
2019-03-27T02:23:49.279Z,48.30
2019-03-27T02:26:19.590Z,54.47
2019-03-27T02:28:49.229Z,65.30
2019-03-27T02:31:19.351Z,52.83
2019-03-27T02:33:49.357Z,53.55
2019-03-27T02:36:19.495Z,61.18
2019-03-27T02:38:53.605Z,58.98
2019-03-27T02:41:22.989Z,53.85
2019-03-27T02:43:52.396Z,58.05
2019-03-27T02:46:25.108Z,62.17
2019-03-27T02:48:52.879Z,75.75
2019-03-27T02:51:22.209Z,60.45
2019-03-27T02:53:51.700Z,63.28
2019-03-27T02:56:21.334Z,58.23
2019-03-27T02:58:50.717Z,60.55
2019-03-27T03:01:20.147Z,53.63
2019-03-27T03:03:49.897Z,65.25
2019-03-27T03:06:20.033Z,51.56
2019-03-27T03:08:50.000Z,64.95
2019-03-27T03:11:20.144Z,67.32
2019-03-27T03:13:49.950Z,66.72
2019-03-27T03:16:20.016Z,64.45
2019-03-27T03:18:49.983Z,69.17
2019-03-27T03:21:20.006Z,69.70
2019-03-27T03:23:50.025Z,76.12
2019-03-27T03:26:20.046Z,77.67
2019-03-27T03:28:50.092Z,75.35
2019-03-27T03:31:20.166Z,80.50
2019-03-27T03:33:50.652Z,68.43
2019-03-27T03:36:20.309Z,73.55
2019-03-27T03:38:50.225Z,69.50
2019-03-27T03:41:20.268Z,79.85
2019-03-27T03:43:50.267Z,63.52
2019-03-27T03:46:20.303Z,74.32
2019-03-27T03:48:50.402Z,77.08
2019-03-27T03:51:20.487Z,86.08
2019-03-27T03:53:50.390Z,68.02
2019-03-27T03:56:22.652Z,82.36
2019-03-27T03:58:54.339Z,60.55
2019-03-27T04:03:56.610Z,72.62
2019-03-27T04:06:26.023Z,75.15
2019-03-27T04:08:55.487Z,88.87
2019-03-27T04:11:24.813Z,84.22
2019-03-27T04:13:54.121Z,75.57
2019-03-27T04:16:24.489Z,79.70
2019-03-27T04:18:53.839Z,95.83
2019-03-27T04:21:26.817Z,83.27
2019-03-27T04:26:22.755Z,95.57
2019-03-27T04:28:52.076Z,115.50
2019-03-27T04:31:21.542Z,142.45
2019-03-27T04:33:50.895Z,99.28
2019-03-27T04:36:20.808Z,93.37
2019-03-27T04:38:50.826Z,84.00
2019-03-27T04:41:20.851Z,82.85
2019-03-27T04:43:50.871Z,88.37
2019-03-27T04:46:21.036Z,95.12
2019-03-27T04:48:50.964Z,102.02
2019-03-27T04:51:21.082Z,91.40
2019-03-27T04:53:50.962Z,86.65
2019-03-27T04:56:21.057Z,74.87
2019-03-27T04:58:51.173Z,91.92
2019-03-27T05:01:21.103Z,97.45
2019-03-27T05:03:51.257Z,88.97
2019-03-27T05:06:21.151Z,95.38
2019-03-27T05:08:51.495Z,88.00
2019-03-27T05:11:21.176Z,101.05
2019-03-27T05:13:51.194Z,88.17
2019-03-27T05:16:21.281Z,105.05
2019-03-27T05:18:51.241Z,89.67
2019-03-27T05:21:21.279Z,82.12
2019-03-27T05:23:51.311Z,99.87
2019-03-27T05:26:21.439Z,86.42
2019-03-27T05:28:51.345Z,74.85
2019-03-27T05:31:21.457Z,85.58
2019-03-27T05:33:51.372Z,102.40
2019-03-27T05:36:21.567Z,87.85
2019-03-27T05:38:54.501Z,95.45
2019-03-27T05:41:23.810Z,94.32
2019-03-27T05:43:53.165Z,84.17
2019-03-27T05:46:22.446Z,88.50
2019-03-27T05:48:52.793Z,97.60
2019-03-27T05:51:22.110Z,95.97
2019-03-27T05:53:51.519Z,96.50
2019-03-27T05:56:21.546Z,99.10
2019-03-27T05:58:51.622Z,113.97
2019-03-27T06:01:21.628Z,117.40
2019-03-27T06:03:51.654Z,91.90
2019-03-27T06:06:21.875Z,107.15
2019-03-27T06:08:51.578Z,90.25
2019-03-27T06:11:21.593Z,108.50
2019-03-27T06:13:51.787Z,110.52
2019-03-27T06:16:21.655Z,129.65
2019-03-27T06:18:51.711Z,111.08
2019-03-27T06:21:21.734Z,138.70
2019-03-27T06:23:51.778Z,123.58
2019-03-27T06:26:21.821Z,92.45
2019-03-27T06:28:51.831Z,90.95
2019-03-27T06:31:21.846Z,72.20
2019-03-27T06:33:51.849Z,65.47
2019-03-27T06:36:21.898Z,56.90
2019-03-27T06:38:51.890Z,59.65
2019-03-27T06:41:22.063Z,45.10
2019-03-27T06:43:51.949Z,49.55
2019-03-27T06:46:22.003Z,43.33
2019-03-27T06:48:51.967Z,55.33
2019-03-27T06:51:24.982Z,47.95
2019-03-27T06:53:53.046Z,50.95
2019-03-27T06:56:22.355Z,48.05
2019-03-27T06:58:54.872Z,56.75
2019-03-27T07:01:23.025Z,46.73
2019-03-27T07:03:53.529Z,49.10
2019-03-27T07:06:22.849Z,38.45
2019-03-27T07:08:53.466Z,47.73
2019-03-27T07:11:22.874Z,39.13
2019-03-27T07:13:52.177Z,44.98
2019-03-27T07:16:22.462Z,46.35
2019-03-27T07:18:52.459Z,42.93
2019-03-27T07:21:22.763Z,40.20
2019-03-27T07:23:52.802Z,40.30
2019-03-27T07:26:23.013Z,36.38
2019-03-27T07:28:54.134Z,41.00
2019-03-27T07:31:23.532Z,35.43
2019-03-27T07:33:53.562Z,34.70
2019-03-27T07:36:23.645Z,44.13
2019-03-27T07:38:53.988Z,31.97
2019-03-27T07:41:23.948Z,33.20
2019-03-27T07:43:54.057Z,35.70
2019-03-27T07:46:24.245Z,31.70
2019-03-27T07:48:54.575Z,31.25
2019-03-27T07:51:24.621Z,34.15
2019-03-27T07:53:54.678Z,35.73
2019-03-27T07:56:24.824Z,34.35
2019-03-27T07:58:59.697Z,31.73
2019-03-27T08:01:28.003Z,40.25
2019-03-27T08:03:57.746Z,29.70
2019-03-27T08:06:27.124Z,27.20
2019-03-27T08:08:56.464Z,27.25
2019-03-27T08:11:26.022Z,31.45
2019-03-27T08:13:56.315Z,28.92
2019-03-27T08:16:26.429Z,29.88
2019-03-27T08:19:06.849Z,33.88
2019-03-27T08:21:30.905Z,32.07
2019-03-27T08:23:58.641Z,33.20
2019-03-27T08:26:28.032Z,37.00
2019-03-27T08:28:57.430Z,28.70
2019-03-27T08:31:27.095Z,28.15
2019-03-27T08:33:57.259Z,26.45
2019-03-27T08:36:27.480Z,29.77
2019-03-27T08:38:57.622Z,24.40
2019-03-27T08:41:27.714Z,27.55
2019-03-27T08:43:57.854Z,19.00
2019-03-27T08:46:28.014Z,26.73
2019-03-27T08:48:58.095Z,20.05
2019-03-27T08:51:28.422Z,21.00
2019-03-27T08:53:58.421Z,20.37
2019-03-27T08:56:28.714Z,19.55
2019-03-27T08:58:58.819Z,20.57
2019-03-27T09:01:28.971Z,18.37
2019-03-27T09:03:59.121Z,20.95
2019-03-27T09:06:33.939Z,26.17
2019-03-27T09:09:00.270Z,25.25
2019-03-27T09:11:29.658Z,24.65
2019-03-27T09:13:59.685Z,27.50
2019-03-27T09:16:31.434Z,20.55
2019-03-27T09:19:00.790Z,15.90
2019-03-27T09:21:30.192Z,16.25
2019-03-27T09:24:00.267Z,19.50
2019-03-27T09:26:30.467Z,23.20
2019-03-27T09:29:01.592Z,27.68
2019-03-27T09:31:43.937Z,23.27
2019-03-27T09:34:02.266Z,27.82
2019-03-27T09:36:31.661Z,22.90
2019-03-27T09:39:01.571Z,22.98
2019-03-27T09:41:31.409Z,19.63
2019-03-27T09:44:01.442Z,19.92
2019-03-27T09:46:31.821Z,16.07
2019-03-27T09:49:01.800Z,16.65
2019-03-27T09:51:31.924Z,24.30
2019-03-27T09:54:02.175Z,21.77
2019-03-27T09:56:32.155Z,16.17
2019-03-27T09:59:05.908Z,17.32
2019-03-27T10:01:34.492Z,17.42
2019-03-27T10:04:03.999Z,17.90
2019-03-27T10:06:33.347Z,18.27
2019-03-27T10:09:04.144Z,17.44
2019-03-27T10:11:33.572Z,18.70
2019-03-27T10:14:03.287Z,13.30
2019-03-27T10:16:33.469Z,13.50
2019-03-27T10:19:03.836Z,13.10
2019-03-27T10:21:33.830Z,14.50
2019-03-27T10:24:04.229Z,14.93
2019-03-27T10:26:34.077Z,11.33
2019-03-27T10:29:04.303Z,12.25
2019-03-27T10:31:34.671Z,10.60
2019-03-27T10:34:04.802Z,15.75
2019-03-27T10:36:34.797Z,17.27
2019-03-27T10:39:07.220Z,15.03
2019-03-27T10:41:38.173Z,19.92
2019-03-27T10:44:07.510Z,16.15
2019-03-27T10:46:37.010Z,20.43
2019-03-27T10:49:06.345Z,15.72
2019-03-27T10:51:36.023Z,15.68
2019-03-27T10:54:06.164Z,19.78
2019-03-27T10:56:36.173Z,20.15
2019-03-27T10:59:06.409Z,20.72
2019-03-27T11:01:36.537Z,18.62
2019-03-27T11:04:06.832Z,15.63
2019-03-27T11:06:36.840Z,17.90
2019-03-27T11:09:09.491Z,17.60
2019-03-27T11:11:39.073Z,19.42
2019-03-27T11:14:08.409Z,19.37
2019-03-27T11:16:37.705Z,15.38
2019-03-27T11:19:07.593Z,16.05
2019-03-27T11:21:37.814Z,13.53
2019-03-27T11:24:07.930Z,17.87
2019-03-27T11:26:38.041Z,13.10
2019-03-27T11:29:08.179Z,11.57
2019-03-27T11:31:38.400Z,13.15
2019-03-27T11:34:08.502Z,14.43
2019-03-27T11:36:38.812Z,10.47
2019-03-27T11:39:10.132Z,16.73
2019-03-27T11:41:39.537Z,15.68
2019-03-27T11:44:12.498Z,17.25
2019-03-27T11:46:40.289Z,15.88
2019-03-27T11:49:09.620Z,13.03
2019-03-27T11:51:39.594Z,16.50
2019-03-27T11:54:09.757Z,12.07
2019-03-27T11:56:39.847Z,17.73
2019-03-27T11:59:12.828Z,14.43
2019-03-27T12:01:43.765Z,13.90
2019-03-27T12:04:13.438Z,18.12
2019-03-27T12:06:42.788Z,15.28
2019-03-27T12:09:12.201Z,16.25
2019-03-27T12:11:41.506Z,13.55
2019-03-27T12:14:12.426Z,12.68
2019-03-27T12:16:42.077Z,11.50
2019-03-27T12:19:12.373Z,12.33
2019-03-27T12:21:42.700Z,12.17
2019-03-27T12:24:12.056Z,10.82
2019-03-27T12:26:41.778Z,11.73
2019-03-27T12:29:11.214Z,14.68
2019-03-27T12:31:40.521Z,9.63
2019-03-27T12:34:09.854Z,10.82
2019-03-27T12:36:39.243Z,11.55
2019-03-27T12:39:08.691Z,12.68
2019-03-27T12:41:38.023Z,14.87
2019-03-27T12:44:07.378Z,11.85
2019-03-27T12:46:36.743Z,10.63
2019-03-27T12:49:06.076Z,9.93
2019-03-27T12:51:36.479Z,9.97
2019-03-27T12:54:05.975Z,12.85
2019-03-27T12:56:35.462Z,12.43
2019-03-27T12:59:09.357Z,11.05
2019-03-27T13:01:38.696Z,12.60
2019-03-27T13:04:08.307Z,13.58
2019-03-27T13:06:37.652Z,14.03
2019-03-27T13:09:07.783Z,11.55
2019-03-27T13:11:37.076Z,9.23
2019-03-27T13:14:06.402Z,9.33
2019-03-27T13:16:35.762Z,10.05
2019-03-27T13:19:05.184Z,17.07
2019-03-27T13:21:34.569Z,15.43
2019-03-27T13:24:04.076Z,10.07
2019-03-27T13:26:33.428Z,10.80
2019-03-27T13:29:02.791Z,7.58
2019-03-27T13:31:33.133Z,13.20
2019-03-27T13:34:02.665Z,8.70
2019-03-27T13:36:32.434Z,7.70
2019-03-27T13:39:02.750Z,14.07
2019-03-27T13:41:33.103Z,11.30
2019-03-27T13:44:02.543Z,8.65
2019-03-27T13:46:31.974Z,9.90
2019-03-27T13:49:01.408Z,10.15
2019-03-27T13:51:40.518Z,11.48
2019-03-27T13:54:01.885Z,13.32
2019-03-27T13:56:31.294Z,11.50
2019-03-27T13:59:00.676Z,9.25
2019-03-27T14:01:30.131Z,14.03
2019-03-27T14:03:59.561Z,12.15
2019-03-27T14:06:28.955Z,15.03
2019-03-27T14:09:04.047Z,12.03
2019-03-27T14:11:34.069Z,10.63
2019-03-27T14:14:11.339Z,11.23
2019-03-27T14:16:34.565Z,10.67
2019-03-27T14:19:05.165Z,15.93
2019-03-27T14:21:34.554Z,10.90
2019-03-27T14:24:03.986Z,9.03
2019-03-27T14:26:44.501Z,15.23
2019-03-27T14:29:04.472Z,8.73
2019-03-27T14:31:33.912Z,12.73
2019-03-27T14:34:04.303Z,13.23
2019-03-27T14:36:33.670Z,11.57
2019-03-27T14:39:03.317Z,15.40
2019-03-27T14:44:02.623Z,12.25
2019-03-27T14:46:31.994Z,19.90
2019-03-27T14:49:01.382Z,8.58
2019-03-27T14:51:30.821Z,11.08
2019-03-27T14:54:00.177Z,14.37
2019-03-27T14:56:29.545Z,13.95
2019-03-27T14:58:58.879Z,12.35
2019-03-27T15:01:28.256Z,14.53
2019-03-27T15:03:57.560Z,12.37
2019-03-27T15:06:26.881Z,13.32
2019-03-27T15:08:56.205Z,13.22
2019-03-27T15:11:25.528Z,14.40
2019-03-27T15:13:54.987Z,13.50
2019-03-27T15:16:24.301Z,9.95
2019-03-27T15:18:53.681Z,14.07
2019-03-27T15:21:23.050Z,14.25
2019-03-27T15:23:52.440Z,12.50
2019-03-27T15:26:21.774Z,16.55
2019-03-27T15:28:51.270Z,12.20
2019-03-27T15:31:23.641Z,18.60
2019-03-27T15:33:52.985Z,11.78
2019-03-27T15:36:28.219Z,9.75
2019-03-27T15:38:58.641Z,15.43
2019-03-27T15:41:28.107Z,17.33
2019-03-27T15:43:57.604Z,11.00
2019-03-27T15:46:27.253Z,16.05
2019-03-27T15:48:57.558Z,15.53
2019-03-27T15:51:28.434Z,12.20
2019-03-27T15:53:57.796Z,11.88
2019-03-27T15:56:27.218Z,12.70
2019-03-27T15:58:56.596Z,13.70
2019-03-27T16:01:26.032Z,13.70
2019-03-27T16:03:55.528Z,11.35
2019-03-27T16:06:24.940Z,12.93
2019-03-27T16:08:54.313Z,14.85
2019-03-27T16:11:23.767Z,12.65
2019-03-27T16:13:53.111Z,13.30
2019-03-27T16:16:22.548Z,15.68
2019-03-27T16:18:52.061Z,16.73
2019-03-27T16:21:21.550Z,13.48
2019-03-27T16:24:05.504Z,15.88
2019-03-27T16:26:22.502Z,15.70
2019-03-27T16:28:51.898Z,14.28
2019-03-27T16:31:21.439Z,15.25
2019-03-27T16:33:51.566Z,12.93
2019-03-27T16:36:21.925Z,10.30
2019-03-27T16:38:51.590Z,13.55
2019-03-27T16:41:21.947Z,16.70
2019-03-27T16:43:51.669Z,18.02
2019-03-27T16:46:21.714Z,14.78
2019-03-27T16:48:51.826Z,17.90
2019-03-27T16:51:21.778Z,18.12
2019-03-27T16:53:51.852Z,11.43
2019-03-27T16:56:21.862Z,14.87
2019-03-27T16:58:51.914Z,18.95
2019-03-27T17:01:21.889Z,14.40
2019-03-27T17:03:52.060Z,12.37
2019-03-27T17:06:21.900Z,17.67
2019-03-27T17:08:57.007Z,14.23
2019-03-27T17:11:26.411Z,14.75
2019-03-27T17:13:55.752Z,15.28
2019-03-27T17:16:25.075Z,16.97
2019-03-27T17:18:54.483Z,16.60
2019-03-27T17:21:23.843Z,18.40
2019-03-27T17:23:53.209Z,25.08
2019-03-27T17:26:22.565Z,21.35
2019-03-27T17:28:52.265Z,20.43
2019-03-27T17:31:22.234Z,18.42
2019-03-27T17:33:52.339Z,18.45
2019-03-27T17:36:22.354Z,17.15
2019-03-27T17:38:52.712Z,15.23
2019-03-27T17:41:22.325Z,17.67
2019-03-27T17:43:52.347Z,19.87
2019-03-27T17:46:22.447Z,18.90
2019-03-27T17:48:52.790Z,16.97
2019-03-27T17:51:22.423Z,18.70
2019-03-27T17:53:52.456Z,18.07
2019-03-27T17:56:22.475Z,16.12
2019-03-27T17:58:52.548Z,15.90
2019-03-27T18:01:22.505Z,16.27
2019-03-27T18:03:52.526Z,19.45
2019-03-27T18:06:22.590Z,16.52
2019-03-27T18:08:52.596Z,19.70
2019-03-27T18:11:22.600Z,16.97
2019-03-27T18:13:52.581Z,17.48
2019-03-27T18:16:22.627Z,17.45
2019-03-27T18:18:56.064Z,22.17
2019-03-27T18:21:25.372Z,21.52
2019-03-27T18:23:54.739Z,17.60
2019-03-27T18:26:24.063Z,15.40
2019-03-27T18:28:53.473Z,19.98
2019-03-27T18:31:22.818Z,22.70
2019-03-27T18:33:52.822Z,19.82
2019-03-27T18:36:22.894Z,19.17
2019-03-27T18:38:52.819Z,16.37
2019-03-27T18:41:23.199Z,21.13
2019-03-27T18:43:53.146Z,19.35
2019-03-27T18:46:23.013Z,26.88
2019-03-27T18:48:53.982Z,15.93
2019-03-27T18:51:23.290Z,20.00
2019-03-27T18:53:59.652Z,18.65
2019-03-27T18:56:24.077Z,18.42
2019-03-27T18:58:53.440Z,25.02
2019-03-27T19:01:23.087Z,21.48
2019-03-27T19:03:53.112Z,23.22
2019-03-27T19:06:23.207Z,23.20
2019-03-27T19:08:53.131Z,23.10
2019-03-27T19:11:23.564Z,19.90
2019-03-27T19:13:53.158Z,28.00
2019-03-27T19:16:23.380Z,22.36
2019-03-27T19:18:53.210Z,28.12
2019-03-27T19:21:23.809Z,22.63
2019-03-27T19:23:53.303Z,23.42
2019-03-27T19:26:23.311Z,19.95
2019-03-27T19:28:53.940Z,19.48
2019-03-27T19:31:23.413Z,24.63
2019-03-27T19:33:53.523Z,24.87
2019-03-27T19:36:23.409Z,21.50
2019-03-27T19:38:54.682Z,31.07
2019-03-27T19:41:24.092Z,22.42
2019-03-27T19:43:53.475Z,26.45
2019-03-27T19:46:23.861Z,28.80
2019-03-27T19:48:53.670Z,36.95
2019-03-27T19:51:23.848Z,34.92
2019-03-27T19:53:54.101Z,32.60
2019-03-27T19:56:24.163Z,25.12
2019-03-27T19:58:54.262Z,29.77
2019-03-27T20:01:24.544Z,25.92
2019-03-27T20:03:54.612Z,28.73
2019-03-27T20:06:24.758Z,37.95
2019-03-27T20:08:56.661Z,31.37
2019-03-27T20:11:26.192Z,36.77
2019-03-27T20:13:55.534Z,31.48
2019-03-27T20:16:29.889Z,26.40
2019-03-27T20:19:00.907Z,21.35
2019-03-27T20:21:30.411Z,25.92
2019-03-27T20:24:05.119Z,20.15
2019-03-27T20:26:34.844Z,20.75
2019-03-27T20:29:14.839Z,28.35
2019-03-27T20:31:44.308Z,23.07
2019-03-27T20:34:13.625Z,28.70
2019-03-27T20:36:42.989Z,27.70
2019-03-27T20:39:12.398Z,28.77
2019-03-27T20:41:42.202Z,26.80
2019-03-27T20:44:11.542Z,19.52
2019-03-27T20:46:40.949Z,21.10
2019-03-27T20:49:10.354Z,27.95
2019-03-27T20:51:40.386Z,23.02
2019-03-27T20:54:09.840Z,27.67
2019-03-27T20:56:44.979Z,22.75
2019-03-27T20:59:14.446Z,25.40
2019-03-27T21:01:43.849Z,31.10
2019-03-27T21:04:16.166Z,25.37
2019-03-27T21:06:45.613Z,26.48
2019-03-27T21:09:19.113Z,26.27
2019-03-27T21:11:48.446Z,22.13
2019-03-27T21:14:17.823Z,27.55
2019-03-27T21:16:47.206Z,24.52
2019-03-27T21:19:16.523Z,25.23
2019-03-27T21:21:45.909Z,25.40
2019-03-27T21:24:15.318Z,27.37
2019-03-27T21:26:44.630Z,26.37
2019-03-27T21:29:13.997Z,25.82
2019-03-27T21:31:43.294Z,30.02
2019-03-27T21:34:13.718Z,30.70
2019-03-27T21:36:43.060Z,21.93
2019-03-27T21:39:13.417Z,27.50
2019-03-27T21:41:42.843Z,26.77
2019-03-27T21:44:12.259Z,25.88
2019-03-27T21:46:41.653Z,26.15
2019-03-27T21:49:14.641Z,32.00
2019-03-27T21:51:44.060Z,29.98
2019-03-27T21:54:13.373Z,23.95
2019-03-27T21:56:42.734Z,30.50
2019-03-27T21:59:12.146Z,23.55
2019-03-27T22:01:41.479Z,23.42
2019-03-27T22:04:11.503Z,32.90
2019-03-27T22:06:41.294Z,39.13
2019-03-27T22:09:10.817Z,25.75
2019-03-27T22:11:41.437Z,26.73
2019-03-27T22:14:10.815Z,24.20
2019-03-27T22:16:40.247Z,23.73
2019-03-27T22:19:09.589Z,21.80
2019-03-27T22:21:38.975Z,27.30
2019-03-27T22:24:08.297Z,30.40
2019-03-27T22:26:37.617Z,30.72
2019-03-27T22:29:06.974Z,25.92
2019-03-27T22:31:36.357Z,36.55
2019-03-27T22:34:05.796Z,25.20
2019-03-27T22:36:35.228Z,28.60
2019-03-27T22:39:07.398Z,25.37
2019-03-27T22:41:36.804Z,32.60
2019-03-27T22:44:07.161Z,24.70
2019-03-27T22:46:39.536Z,23.38
2019-03-27T22:49:08.913Z,30.60
2019-03-27T22:51:39.298Z,21.90
2019-03-27T22:54:08.653Z,24.90
2019-03-27T22:56:39.001Z,27.50
2019-03-27T22:59:08.307Z,26.97
2019-03-27T23:01:41.756Z,27.13
2019-03-27T23:04:11.117Z,35.55
2019-03-27T23:06:40.618Z,26.95
2019-03-27T23:09:09.983Z,26.90
2019-03-27T23:11:39.410Z,32.13
2019-03-27T23:14:08.862Z,29.32
2019-03-27T23:16:38.333Z,32.17
2019-03-27T23:19:07.723Z,30.57
2019-03-27T23:21:37.347Z,26.05
2019-03-27T23:24:06.759Z,26.75
2019-03-27T23:26:36.109Z,26.25
2019-03-27T23:29:05.587Z,21.62
2019-03-27T23:31:34.957Z,33.83
2019-03-27T23:34:04.705Z,28.73
2019-03-27T23:36:34.102Z,23.95
2019-03-27T23:39:11.762Z,27.30
2019-03-27T23:41:42.122Z,30.85
2019-03-27T23:44:11.830Z,29.23
2019-03-27T23:46:41.227Z,30.70
2019-03-27T23:49:10.617Z,28.15
2019-03-27T23:51:39.977Z,29.23
2019-03-27T23:54:09.462Z,31.73
2019-03-27T23:56:38.827Z,31.23
2019-03-27T23:59:08.208Z,26.65
